Time;durP1;ratioP1;P1;durP2;ratioP2;P2;SDS_P1;SDS_P2;PMS_P1;PMS_P2;Temp;Humidity;BMP_temperature;BMP_pressure;BME280_temperature;BME280_humidity;BME280_pressure;Samples;Min_cycle;Max_cycle;Signal;HPM_P1;HPM_P2
2022/01/25 00:10:38;;;;;;;;;;;20.40;28.10;;;;;;685426;28;823;-85
2022/01/25 00:10:41;;;;;;;;;;;20.40;28.00;;;;;;680032;29;1185;-82
2022/01/25 00:24:18;;;;;;;;;;;20.30;27.60;;;;;;682683;29;637;-82
2022/01/25 00:25:05;;;;;;;;;;;20.30;27.50;;;;;;686970;28;687;-80
2022/01/25 00:26:21;;;;;;;;;;;20.30;27.50;;;;;;683610;29;625;-82
2022/01/25 00:27:03;;;;;;;;;;;20.30;27.50;;;;;;682947;29;1231;-82
2022/01/25 00:28:03;;;;;;;;;;;20.30;27.50;;;;;;686621;28;656;-83
2022/01/25 00:28:38;;;;;;;;;;;20.30;27.50;;;;;;683794;29;894;-81
2022/01/25 00:29:09;;;;;;;;;;;20.30;27.40;;;;;;682856;29;814;-83
2022/01/25 00:29:46;;;;;;;;;;;20.20;27.30;;;;;;683217;29;914;-82
2022/01/25 00:30:42;;;;;;;;;;;20.20;27.30;;;;;;683401;28;834;-81
2022/01/25 00:31:10;;;;;;;;;;;20.30;27.30;;;;;;686811;28;851;-82
2022/01/25 00:31:32;;;;;;;;;;;20.30;27.20;;;;;;683019;29;886;-86
2022/01/25 00:31:52;;;;;;;;;;;20.30;27.20;;;;;;683227;28;1378;-80
2022/01/25 00:32:13;;;;;;;;;;;20.30;27.20;;;;;;682935;28;1445;-85
2022/01/25 00:32:34;;;;;;;;;;;20.20;27.20;;;;;;682672;29;1808;-82
2022/01/25 00:32:55;;;;;;;;;;;20.20;27.20;;;;;;682565;29;887;-84
2022/01/25 00:33:16;;;;;;;;;;;20.20;27.20;;;;;;681649;29;804;-84
2022/01/25 00:33:38;;;;;;;;;;;20.30;27.10;;;;;;684129;29;1008;-83
2022/01/25 00:34:00;;;;;;;;;;;20.30;27.10;;;;;;682652;29;1032;-88
2022/01/25 00:34:21;;;;;;;;;;;20.20;27.20;;;;;;683498;28;870;-86
2022/01/25 00:34:41;;;;;;;;;;;20.30;27.10;;;;;;682662;29;1107;-82
2022/01/25 00:35:02;;;;;;;;;;;20.20;27.00;;;;;;681909;29;1321;-82
2022/01/25 00:35:23;;;;;;;;;;;20.20;26.90;;;;;;682507;29;1921;-79
2022/01/25 00:35:43;;;;;;;;;;;20.20;27.00;;;;;;682491;29;1439;-81
2022/01/25 00:36:06;;;;;;;;;;;20.30;27.00;;;;;;682689;29;918;-80
2022/01/25 00:36:27;;;;;;;;;;;20.20;26.90;;;;;;682635;29;828;-80
2022/01/25 00:36:47;;;;;;;;;;;20.20;26.80;;;;;;682603;29;862;-81
2022/01/25 00:37:08;;;;;;;;;;;20.30;26.80;;;;;;683583;28;1305;-82
2022/01/25 00:37:28;;;;;;;;;;;20.30;26.90;;;;;;685241;28;830;-85
2022/01/25 00:37:50;;;;;;;;;;;20.20;26.80;;;;;;685337;28;898;-83
2022/01/25 00:38:10;;;;;;;;;;;20.20;26.80;;;;;;685313;28;831;-83
2022/01/25 00:38:31;;;;;;;;;;;20.20;26.80;;;;;;685334;28;835;-82
2022/01/25 00:38:52;;;;;;;;;;;20.30;26.90;;;;;;685247;28;895;-83
2022/01/25 00:39:12;;;;;;;;;;;20.20;26.80;;;;;;685114;28;863;-81
2022/01/25 00:39:34;;;;;;;;;;;20.20;26.80;;;;;;682586;29;1281;-83
2022/01/25 00:39:55;;;;;;;;;;;20.30;26.80;;;;;;682715;29;760;-87
2022/01/25 00:40:16;;;;;;;;;;;20.20;26.80;;;;;;682568;28;1402;-82
2022/01/25 00:40:36;;;;;;;;;;;20.30;26.80;;;;;;682598;28;1355;-83
2022/01/25 00:40:57;;;;;;;;;;;20.20;26.70;;;;;;682524;29;906;-81
2022/01/25 00:41:18;;;;;;;;;;;20.20;26.70;;;;;;682710;28;1485;-85
2022/01/25 00:41:39;;;;;;;;;;;20.20;26.70;;;;;;685211;28;1362;-81
2022/01/25 00:41:59;;;;;;;;;;;20.20;26.70;;;;;;685188;28;1690;-82
2022/01/25 00:42:20;;;;;;;;;;;20.20;27.50;;;;;;685250;28;898;-81
2022/01/25 00:42:40;;;;;;;;;;;20.20;26.60;;;;;;685384;28;2384;-84
2022/01/25 00:43:01;;;;;;;;;;;20.20;26.50;;;;;;682567;29;1400;-83
2022/01/25 00:43:23;;;;;;;;;;;20.20;26.60;;;;;;682525;29;953;-85
2022/01/25 00:43:44;;;;;;;;;;;20.20;26.50;;;;;;682551;29;1763;-80
2022/01/25 00:44:05;;;;;;;;;;;20.20;26.50;;;;;;682666;29;946;-82
2022/01/25 00:44:30;;;;;;;;;;;20.20;26.50;;;;;;682614;29;784;-82
2022/01/25 00:44:51;;;;;;;;;;;20.20;26.50;;;;;;683609;28;1526;-83
2022/01/25 00:45:14;;;;;;;;;;;20.20;26.50;;;;;;685271;28;934;-80
2022/01/25 00:45:35;;;;;;;;;;;20.20;26.50;;;;;;685125;28;807;-80
2022/01/25 00:45:59;;;;;;;;;;;20.20;26.50;;;;;;685261;28;907;-85
2022/01/25 00:46:22;;;;;;;;;;;20.20;26.50;;;;;;684993;28;1439;-82
2022/01/25 00:46:43;;;;;;;;;;;20.20;26.50;;;;;;685353;28;1238;-84
2022/01/25 00:47:06;;;;;;;;;;;20.20;26.50;;;;;;684596;28;1435;-81
2022/01/25 00:47:26;;;;;;;;;;;20.20;26.50;;;;;;685736;28;1280;-86
2022/01/25 00:47:50;;;;;;;;;;;20.20;27.30;;;;;;685187;28;1320;-80
2022/01/25 00:48:18;;;;;;;;;;;20.20;26.50;;;;;;685375;28;1297;-87
2022/01/25 00:49:03;;;;;;;;;;;20.20;26.50;;;;;;686869;28;1214;-87
2022/01/25 00:49:27;;;;;;;;;;;20.20;26.50;;;;;;683178;28;988;-79
2022/01/25 00:49:52;;;;;;;;;;;20.20;26.50;;;;;;682739;28;1216;-81
2022/01/25 00:50:15;;;;;;;;;;;20.20;26.50;;;;;;685352;28;807;-80
2022/01/25 00:50:41;;;;;;;;;;;20.20;26.50;;;;;;685522;28;827;-79
2022/01/25 00:52:20;;;;;;;;;;;20.20;26.40;;;;;;688027;28;893;-83
2022/01/25 00:54:12;;;;;;;;;;;20.20;26.30;;;;;;685277;28;1172;-85
2022/01/25 00:54:39;;;;;;;;;;;20.20;26.30;;;;;;685522;28;1258;-81
2022/01/25 00:55:01;;;;;;;;;;;20.20;26.20;;;;;;685362;28;1188;-85
2022/01/25 00:55:22;;;;;;;;;;;20.20;26.30;;;;;;685167;28;1226;-86
2022/01/25 00:55:43;;;;;;;;;;;20.20;26.30;;;;;;687903;28;1161;-84
2022/01/25 00:56:03;;;;;;;;;;;20.20;26.30;;;;;;687815;28;1338;-85
2022/01/25 00:56:25;;;;;;;;;;;20.20;26.20;;;;;;685204;28;1223;-84
2022/01/25 00:56:46;;;;;;;;;;;20.20;26.20;;;;;;685403;28;771;-82
2022/01/25 00:57:08;;;;;;;;;;;20.20;26.30;;;;;;685168;28;1250;-83
2022/01/25 00:57:28;;;;;;;;;;;20.20;26.30;;;;;;685126;28;1223;-83
2022/01/25 00:57:49;;;;;;;;;;;20.20;26.30;;;;;;685404;28;949;-83
2022/01/25 00:58:09;;;;;;;;;;;20.20;26.20;;;;;;685139;28;1231;-82
2022/01/25 00:58:30;;;;;;;;;;;20.10;26.20;;;;;;685453;28;1336;-83
2022/01/25 00:58:51;;;;;;;;;;;20.20;26.20;;;;;;685412;28;842;-86
2022/01/25 00:59:13;;;;;;;;;;;20.20;26.30;;;;;;685457;28;1199;-82
2022/01/25 00:59:34;;;;;;;;;;;20.10;26.20;;;;;;685532;28;1187;-86
2022/01/25 00:59:54;;;;;;;;;;;20.10;26.20;;;;;;685252;28;1213;-85
2022/01/25 01:00:15;;;;;;;;;;;20.20;26.30;;;;;;685091;28;1255;-82
2022/01/25 01:00:35;;;;;;;;;;;20.20;26.20;;;;;;685455;28;827;-78
2022/01/25 01:00:57;;;;;;;;;;;20.10;26.30;;;;;;685379;28;871;-79
2022/01/25 01:01:18;;;;;;;;;;;20.10;26.20;;;;;;685487;28;784;-82
2022/01/25 01:01:39;;;;;;;;;;;20.10;26.10;;;;;;685476;28;879;-77
2022/01/25 01:02:05;;;;;;;;;;;20.10;26.20;;;;;;685426;28;1122;-81
2022/01/25 01:02:25;;;;;;;;;;;20.10;26.20;;;;;;685102;28;1628;-88
2022/01/25 01:02:46;;;;;;;;;;;20.20;26.20;;;;;;682776;28;1942;-86
2022/01/25 01:03:06;;;;;;;;;;;20.10;26.10;;;;;;682322;28;1028;-82
2022/01/25 01:03:27;;;;;;;;;;;20.10;26.10;;;;;;682500;28;1214;-81
2022/01/25 01:03:47;;;;;;;;;;;20.10;26.10;;;;;;683636;28;863;-84
2022/01/25 01:04:08;;;;;;;;;;;20.10;26.10;;;;;;685219;28;1180;-77
2022/01/25 01:04:31;;;;;;;;;;;20.10;26.10;;;;;;685222;28;1247;-77
2022/01/25 01:04:51;;;;;;;;;;;20.10;26.10;;;;;;685223;28;797;-82
2022/01/25 01:05:12;;;;;;;;;;;20.10;26.00;;;;;;685237;28;1187;-80
2022/01/25 01:05:33;;;;;;;;;;;20.10;26.00;;;;;;685407;28;1227;-80
2022/01/25 01:05:53;;;;;;;;;;;20.10;25.90;;;;;;685471;28;831;-77
2022/01/25 01:06:15;;;;;;;;;;;20.10;25.90;;;;;;690354;28;1462;-78
2022/01/25 01:06:37;;;;;;;;;;;20.10;26.80;;;;;;690029;28;1182;-81
2022/01/25 01:06:58;;;;;;;;;;;20.10;25.90;;;;;;688090;28;807;-78
2022/01/25 01:07:18;;;;;;;;;;;20.10;25.80;;;;;;688226;28;1269;-80
2022/01/25 01:07:41;;;;;;;;;;;20.10;25.80;;;;;;688819;28;1258;-81
2022/01/25 01:08:01;;;;;;;;;;;20.10;25.80;;;;;;689125;28;857;-83
2022/01/25 01:08:22;;;;;;;;;;;20.10;25.80;;;;;;685441;28;1230;-82
2022/01/25 01:08:43;;;;;;;;;;;20.10;25.90;;;;;;690434;28;1269;-80
2022/01/25 01:09:05;;;;;;;;;;;20.10;25.80;;;;;;690796;28;810;-82
2022/01/25 01:09:28;;;;;;;;;;;20.10;25.80;;;;;;685441;28;1472;-82
2022/01/25 01:09:51;;;;;;;;;;;20.10;25.80;;;;;;685595;28;1266;-80
2022/01/25 01:10:15;;;;;;;;;;;20.10;25.80;;;;;;685429;28;1191;-82
2022/01/25 01:10:35;;;;;;;;;;;20.10;25.80;;;;;;685411;28;827;-80
2022/01/25 01:10:58;;;;;;;;;;;20.10;25.80;;;;;;685308;28;835;-82
2022/01/25 01:11:26;;;;;;;;;;;20.00;25.70;;;;;;685815;28;1095;-83
2022/01/25 01:12:01;;;;;;;;;;;20.10;25.80;;;;;;685931;28;788;-85
2022/01/25 01:15:29;;;;;;;;;;;20.00;25.80;;;;;;683356;28;751;-82
2022/01/25 01:15:58;;;;;;;;;;;20.00;25.80;;;;;;683143;29;1191;-81
2022/01/25 01:31:04;;;;;;;;;;;19.90;25.90;;;;;;685882;28;1544;-82
2022/01/25 01:31:34;;;;;;;;;;;19.90;25.90;;;;;;686065;28;843;-81
2022/01/25 01:32:04;;;;;;;;;;;19.90;25.90;;;;;;683345;28;1229;-79
2022/01/25 01:34:42;;;;;;;;;;;19.90;25.80;;;;;;686019;28;590;-81
2022/01/25 01:36:14;;;;;;;;;;;19.90;25.80;;;;;;686091;28;645;-82
2022/01/25 01:40:34;;;;;;;;;;;19.90;25.40;;;;;;686087;28;902;-81
2022/01/25 01:42:34;;;;;;;;;;;19.90;26.30;;;;;;686017;28;955;-82
2022/01/25 01:43:33;;;;;;;;;;;19.90;25.50;;;;;;686532;28;633;-81
2022/01/25 01:43:56;;;;;;;;;;;19.90;25.30;;;;;;683616;28;1110;-80
2022/01/25 01:44:23;;;;;;;;;;;19.90;25.30;;;;;;683630;29;827;-80
2022/01/25 01:45:06;;;;;;;;;;;19.90;25.30;;;;;;683368;28;1398;-78
2022/01/25 01:46:32;;;;;;;;;;;19.90;25.30;;;;;;686162;28;779;-79
2022/01/25 01:46:55;;;;;;;;;;;19.90;25.30;;;;;;685769;28;1247;-81
2022/01/25 01:47:24;;;;;;;;;;;19.90;25.20;;;;;;686084;28;1630;-83
2022/01/25 01:47:48;;;;;;;;;;;19.90;25.10;;;;;;686114;28;828;-82
2022/01/25 01:48:14;;;;;;;;;;;19.90;25.20;;;;;;686773;28;831;-81
2022/01/25 01:48:57;;;;;;;;;;;19.90;25.20;;;;;;686759;28;882;-81
2022/01/25 01:49:17;;;;;;;;;;;19.90;25.20;;;;;;687062;28;791;-83
2022/01/25 01:49:42;;;;;;;;;;;19.90;25.10;;;;;;686619;28;815;-81
2022/01/25 01:50:09;;;;;;;;;;;19.90;25.10;;;;;;686642;28;862;-80
2022/01/25 01:50:37;;;;;;;;;;;19.90;25.10;;;;;;686560;28;815;-81
2022/01/25 01:51:05;;;;;;;;;;;19.90;25.30;;;;;;686991;28;1638;-82
2022/01/25 01:51:49;;;;;;;;;;;19.80;25.20;;;;;;689157;28;1559;-80
2022/01/25 01:52:13;;;;;;;;;;;19.80;25.50;;;;;;686490;28;1201;-81
2022/01/25 01:52:34;;;;;;;;;;;19.80;25.60;;;;;;686348;28;780;-80
2022/01/25 01:52:56;;;;;;;;;;;19.80;25.80;;;;;;683382;28;1367;-81
2022/01/25 01:53:17;;;;;;;;;;;19.80;25.90;;;;;;683585;28;1079;-81
2022/01/25 01:53:37;;;;;;;;;;;19.80;26.00;;;;;;681350;28;1648;-81
2022/01/25 01:54:00;;;;;;;;;;;19.80;27.00;;;;;;682012;29;804;-80
2022/01/25 01:54:21;;;;;;;;;;;19.80;26.20;;;;;;683504;29;1139;-81
2022/01/25 01:54:41;;;;;;;;;;;19.80;26.50;;;;;;683217;28;1643;-80
2022/01/25 01:55:03;;;;;;;;;;;19.80;26.80;;;;;;683201;28;1015;-79
2022/01/25 01:55:25;;;;;;;;;;;19.80;26.70;;;;;;683734;29;1515;-80
2022/01/25 01:55:45;;;;;;;;;;;19.90;26.70;;;;;;684283;29;855;-79
2022/01/25 01:56:06;;;;;;;;;;;19.80;26.50;;;;;;685334;28;1119;-77
2022/01/25 01:56:27;;;;;;;;;;;19.80;26.40;;;;;;687675;28;894;-78
2022/01/25 01:56:47;;;;;;;;;;;19.80;26.30;;;;;;687122;28;1367;-78
2022/01/25 01:57:08;;;;;;;;;;;19.80;26.30;;;;;;687332;28;1080;-77
2022/01/25 01:57:29;;;;;;;;;;;19.90;26.30;;;;;;687375;28;816;-77
2022/01/25 01:57:49;;;;;;;;;;;19.90;26.20;;;;;;687599;28;955;-79
2022/01/25 01:58:10;;;;;;;;;;;19.80;26.20;;;;;;687470;28;843;-77
2022/01/25 01:58:30;;;;;;;;;;;19.80;26.10;;;;;;687534;28;915;-78
2022/01/25 01:58:52;;;;;;;;;;;19.80;26.10;;;;;;687447;28;875;-77
2022/01/25 01:59:14;;;;;;;;;;;19.80;26.10;;;;;;687127;28;922;-77
2022/01/25 01:59:34;;;;;;;;;;;19.80;26.00;;;;;;687436;28;938;-78
2022/01/25 01:59:55;;;;;;;;;;;19.90;26.00;;;;;;687621;28;958;-77
2022/01/25 02:00:17;;;;;;;;;;;19.80;25.90;;;;;;687252;28;1021;-79
2022/01/25 02:00:41;;;;;;;;;;;19.80;25.90;;;;;;686670;28;1281;-81
2022/01/25 02:01:02;;;;;;;;;;;19.80;25.80;;;;;;684586;28;977;-82
2022/01/25 02:01:24;;;;;;;;;;;19.80;25.90;;;;;;684684;29;1287;-79
2022/01/25 02:01:46;;;;;;;;;;;19.80;25.90;;;;;;684673;29;1084;-78
2022/01/25 02:02:06;;;;;;;;;;;19.80;25.90;;;;;;684618;29;886;-79
2022/01/25 02:02:27;;;;;;;;;;;19.80;25.80;;;;;;685071;29;863;-80
2022/01/25 02:02:48;;;;;;;;;;;19.80;25.80;;;;;;684478;29;1904;-78
2022/01/25 02:03:09;;;;;;;;;;;19.80;25.80;;;;;;684478;28;1052;-79
2022/01/25 02:03:30;;;;;;;;;;;19.80;25.70;;;;;;684676;28;1085;-78
2022/01/25 02:03:51;;;;;;;;;;;19.90;26.70;;;;;;684883;29;899;-78
2022/01/25 02:04:13;;;;;;;;;;;19.80;25.80;;;;;;684920;29;866;-76
2022/01/25 02:04:33;;;;;;;;;;;19.80;25.70;;;;;;684888;29;878;-81
2022/01/25 02:04:54;;;;;;;;;;;19.80;25.70;;;;;;684502;29;863;-78
2022/01/25 02:05:15;;;;;;;;;;;19.80;25.70;;;;;;684860;28;1044;-78
2022/01/25 02:05:35;;;;;;;;;;;19.80;25.80;;;;;;684642;29;975;-79
2022/01/25 02:05:56;;;;;;;;;;;19.80;25.80;;;;;;684873;29;954;-79
2022/01/25 02:06:17;;;;;;;;;;;19.80;25.70;;;;;;684573;29;792;-78
2022/01/25 02:06:37;;;;;;;;;;;19.80;25.70;;;;;;684775;29;882;-80
2022/01/25 02:06:58;;;;;;;;;;;19.80;25.70;;;;;;686572;28;1267;-78
2022/01/25 02:07:18;;;;;;;;;;;19.80;25.60;;;;;;687402;28;768;-78
2022/01/25 02:07:39;;;;;;;;;;;19.80;25.60;;;;;;687267;28;1060;-79
2022/01/25 02:08:00;;;;;;;;;;;19.80;25.60;;;;;;687486;28;1112;-79
2022/01/25 02:08:20;;;;;;;;;;;19.90;25.60;;;;;;687297;28;1142;-77
2022/01/25 02:08:41;;;;;;;;;;;19.80;25.60;;;;;;688217;28;1282;-78
2022/01/25 02:09:03;;;;;;;;;;;19.80;25.60;;;;;;688635;28;1222;-79
2022/01/25 02:09:24;;;;;;;;;;;19.80;25.50;;;;;;684512;28;906;-78
2022/01/25 02:09:44;;;;;;;;;;;19.80;25.50;;;;;;684619;29;998;-78
2022/01/25 02:10:05;;;;;;;;;;;19.80;25.40;;;;;;685309;28;811;-78
2022/01/25 02:10:26;;;;;;;;;;;19.80;25.50;;;;;;687066;28;1439;-78
2022/01/25 02:10:46;;;;;;;;;;;19.80;25.50;;;;;;687282;28;977;-78
2022/01/25 02:11:07;;;;;;;;;;;19.80;25.50;;;;;;687337;28;981;-77
2022/01/25 02:11:28;;;;;;;;;;;19.80;25.50;;;;;;687298;28;1226;-79
2022/01/25 02:11:48;;;;;;;;;;;19.80;25.40;;;;;;687032;28;982;-81
2022/01/25 02:12:09;;;;;;;;;;;19.80;25.40;;;;;;686292;28;1235;-79
2022/01/25 02:12:29;;;;;;;;;;;19.80;25.40;;;;;;685876;28;1594;-81
2022/01/25 02:12:51;;;;;;;;;;;19.80;25.40;;;;;;685875;28;1092;-81
2022/01/25 02:13:12;;;;;;;;;;;19.80;25.50;;;;;;686058;28;1179;-79
2022/01/25 02:13:33;;;;;;;;;;;19.80;25.50;;;;;;686026;28;770;-77
2022/01/25 02:13:53;;;;;;;;;;;19.80;25.40;;;;;;685903;28;766;-80
2022/01/25 02:14:15;;;;;;;;;;;19.80;25.40;;;;;;685967;28;845;-81
2022/01/25 02:14:37;;;;;;;;;;;19.80;25.40;;;;;;686053;28;827;-78
2022/01/25 02:14:57;;;;;;;;;;;19.80;25.40;;;;;;688517;28;1196;-80
2022/01/25 02:15:19;;;;;;;;;;;19.80;25.40;;;;;;688495;28;795;-78
2022/01/25 02:15:44;;;;;;;;;;;19.80;25.30;;;;;;688363;28;787;-81
2022/01/25 02:16:08;;;;;;;;;;;19.80;25.30;;;;;;685957;28;863;-81
2022/01/25 02:17:07;;;;;;;;;;;19.80;25.20;;;;;;685792;28;731;-82
2022/01/25 02:22:31;;;;;;;;;;;19.70;25.10;;;;;;685915;28;584;-83
2022/01/25 02:22:52;;;;;;;;;;;19.70;25.10;;;;;;688050;28;1967;-77
2022/01/25 02:23:21;;;;;;;;;;;19.70;25.00;;;;;;688516;28;775;-79
2022/01/25 02:23:42;;;;;;;;;;;19.70;25.10;;;;;;688441;28;826;-79
2022/01/25 02:24:03;;;;;;;;;;;19.70;25.10;;;;;;688315;28;1413;-79
2022/01/25 02:24:24;;;;;;;;;;;19.70;25.10;;;;;;688319;28;803;-80
2022/01/25 02:24:45;;;;;;;;;;;19.70;25.10;;;;;;685471;28;806;-80
2022/01/25 02:25:05;;;;;;;;;;;19.70;25.10;;;;;;683243;28;791;-77
2022/01/25 02:25:26;;;;;;;;;;;19.70;25.10;;;;;;688590;28;1123;-82
2022/01/25 02:25:53;;;;;;;;;;;19.70;25.00;;;;;;688421;28;1167;-81
2022/01/25 02:26:14;;;;;;;;;;;19.70;25.00;;;;;;685708;28;1582;-78
2022/01/25 02:26:34;;;;;;;;;;;19.70;25.00;;;;;;685687;28;823;-79
2022/01/25 02:26:56;;;;;;;;;;;19.70;25.00;;;;;;685630;28;961;-81
2022/01/25 02:27:16;;;;;;;;;;;19.70;25.00;;;;;;684492;28;858;-78
2022/01/25 02:27:37;;;;;;;;;;;19.70;24.90;;;;;;683145;29;799;-79
2022/01/25 02:27:57;;;;;;;;;;;19.70;25.00;;;;;;683102;29;548;-80
2022/01/25 02:28:18;;;;;;;;;;;19.70;24.90;;;;;;683162;28;819;-79
2022/01/25 02:28:41;;;;;;;;;;;19.70;24.90;;;;;;683351;28;1437;-78
2022/01/25 02:29:02;;;;;;;;;;;19.70;24.90;;;;;;683233;28;772;-76
2022/01/25 02:29:23;;;;;;;;;;;19.70;25.00;;;;;;683317;28;867;-78
2022/01/25 02:29:44;;;;;;;;;;;19.70;25.00;;;;;;683251;28;807;-79
2022/01/25 02:30:04;;;;;;;;;;;19.70;25.00;;;;;;683236;28;883;-77
2022/01/25 02:30:25;;;;;;;;;;;19.70;24.90;;;;;;683133;28;784;-80
2022/01/25 02:30:46;;;;;;;;;;;19.70;25.00;;;;;;683263;28;903;-80
2022/01/25 02:31:08;;;;;;;;;;;19.70;24.90;;;;;;683200;28;846;-78
2022/01/25 02:31:29;;;;;;;;;;;19.70;25.00;;;;;;685546;28;1213;-80
2022/01/25 02:31:51;;;;;;;;;;;19.70;24.90;;;;;;685759;28;890;-79
2022/01/25 02:32:12;;;;;;;;;;;19.70;24.90;;;;;;685649;28;879;-80
2022/01/25 02:32:32;;;;;;;;;;;19.70;24.90;;;;;;685512;28;855;-78
2022/01/25 02:32:53;;;;;;;;;;;19.70;24.80;;;;;;685581;28;814;-80
2022/01/25 02:33:13;;;;;;;;;;;19.70;25.00;;;;;;688038;28;934;-80
2022/01/25 02:33:34;;;;;;;;;;;19.70;24.90;;;;;;685870;28;815;-80
2022/01/25 02:33:55;;;;;;;;;;;19.70;24.90;;;;;;685824;28;784;-79
2022/01/25 02:34:15;;;;;;;;;;;19.70;24.90;;;;;;685869;28;895;-79
2022/01/25 02:34:36;;;;;;;;;;;19.70;24.80;;;;;;685993;28;783;-79
2022/01/25 02:34:57;;;;;;;;;;;19.70;24.90;;;;;;685703;28;1342;-80
2022/01/25 02:35:17;;;;;;;;;;;19.60;24.80;;;;;;685910;28;780;-80
2022/01/25 02:35:40;;;;;;;;;;;19.70;24.70;;;;;;688197;28;1246;-78
2022/01/25 02:36:03;;;;;;;;;;;19.60;24.70;;;;;;688395;28;858;-79
2022/01/25 02:36:27;;;;;;;;;;;19.60;24.60;;;;;;688216;28;945;-80
2022/01/25 02:36:54;;;;;;;;;;;19.70;24.50;;;;;;688313;28;919;-80
2022/01/25 02:37:16;;;;;;;;;;;19.70;24.70;;;;;;688391;28;875;-78
2022/01/25 02:37:38;;;;;;;;;;;19.70;24.70;;;;;;685900;28;1300;-81
2022/01/25 02:37:58;;;;;;;;;;;19.70;24.70;;;;;;685542;28;1267;-81
2022/01/25 02:38:20;;;;;;;;;;;19.60;24.70;;;;;;685732;28;954;-79
2022/01/25 02:38:41;;;;;;;;;;;19.60;24.80;;;;;;685897;28;898;-79
2022/01/25 02:39:02;;;;;;;;;;;19.70;24.70;;;;;;685475;28;807;-81
2022/01/25 02:39:23;;;;;;;;;;;19.70;24.70;;;;;;683504;28;1326;-79
2022/01/25 02:39:44;;;;;;;;;;;19.70;24.70;;;;;;685676;28;965;-78
2022/01/25 02:40:06;;;;;;;;;;;19.70;24.80;;;;;;685549;28;1032;-79
2022/01/25 02:40:26;;;;;;;;;;;19.70;24.70;;;;;;685527;28;1459;-82
2022/01/25 02:40:47;;;;;;;;;;;19.70;24.70;;;;;;685669;28;899;-80
2022/01/25 02:41:08;;;;;;;;;;;19.60;24.50;;;;;;685648;28;941;-80
2022/01/25 02:41:29;;;;;;;;;;;19.70;24.50;;;;;;685707;28;799;-82
2022/01/25 02:41:51;;;;;;;;;;;19.70;24.50;;;;;;682926;29;1181;-81
2022/01/25 02:42:13;;;;;;;;;;;19.70;24.60;;;;;;683545;28;786;-82
2022/01/25 02:42:34;;;;;;;;;;;19.70;24.70;;;;;;685794;28;804;-79
2022/01/25 02:42:54;;;;;;;;;;;19.70;24.80;;;;;;685496;28;1969;-81
2022/01/25 02:43:18;;;;;;;;;;;19.70;24.80;;;;;;682851;28;1451;-81
2022/01/25 02:43:38;;;;;;;;;;;19.70;24.80;;;;;;681299;28;1369;-81
2022/01/25 02:43:59;;;;;;;;;;;19.60;24.70;;;;;;683105;29;831;-80
2022/01/25 02:44:25;;;;;;;;;;;19.70;24.70;;;;;;682958;28;1419;-81
2022/01/25 02:44:46;;;;;;;;;;;19.60;24.70;;;;;;680324;29;1182;-82
2022/01/25 02:45:11;;;;;;;;;;;19.70;24.80;;;;;;681598;29;792;-83
2022/01/25 02:45:34;;;;;;;;;;;19.70;24.70;;;;;;684647;28;839;-81
2022/01/25 02:48:51;;;;;;;;;;;19.60;24.60;;;;;;685929;28;617;-81
2022/01/25 02:49:13;;;;;;;;;;;19.60;24.60;;;;;;685797;28;1448;-82
2022/01/25 02:49:34;;;;;;;;;;;19.70;24.40;;;;;;685708;28;1343;-81
2022/01/25 02:49:55;;;;;;;;;;;19.70;24.50;;;;;;685891;28;938;-82
2022/01/25 02:50:15;;;;;;;;;;;19.70;24.40;;;;;;685793;28;779;-83
2022/01/25 02:50:36;;;;;;;;;;;19.60;24.40;;;;;;685936;28;902;-82
2022/01/25 02:50:58;;;;;;;;;;;19.60;24.50;;;;;;685837;28;799;-80
2022/01/25 02:51:19;;;;;;;;;;;19.60;24.40;;;;;;685791;28;800;-81
2022/01/25 02:51:41;;;;;;;;;;;19.70;24.50;;;;;;685639;28;1358;-81
2022/01/25 02:52:03;;;;;;;;;;;19.70;24.40;;;;;;685849;28;1259;-80
2022/01/25 02:52:25;;;;;;;;;;;19.60;24.40;;;;;;685736;28;946;-79
2022/01/25 02:52:46;;;;;;;;;;;19.70;24.60;;;;;;685723;28;1410;-79
2022/01/25 02:53:06;;;;;;;;;;;19.70;24.50;;;;;;685886;28;807;-82
2022/01/25 02:53:28;;;;;;;;;;;19.60;24.30;;;;;;685851;28;899;-79
2022/01/25 02:53:48;;;;;;;;;;;19.70;24.40;;;;;;685707;28;850;-80
2022/01/25 02:54:10;;;;;;;;;;;19.60;24.40;;;;;;690950;28;1351;-82
2022/01/25 02:54:30;;;;;;;;;;;19.60;24.50;;;;;;691019;28;906;-81
2022/01/25 02:54:51;;;;;;;;;;;19.70;24.60;;;;;;691024;28;802;-81
2022/01/25 02:55:11;;;;;;;;;;;19.70;24.60;;;;;;688228;28;1351;-81
2022/01/25 02:55:32;;;;;;;;;;;19.60;24.50;;;;;;688389;28;874;-78
2022/01/25 02:55:53;;;;;;;;;;;19.70;24.70;;;;;;687893;28;879;-79
2022/01/25 02:56:15;;;;;;;;;;;19.60;24.60;;;;;;685700;28;926;-82
2022/01/25 02:56:37;;;;;;;;;;;19.70;24.60;;;;;;685601;28;795;-82
2022/01/25 02:56:57;;;;;;;;;;;19.60;24.60;;;;;;685613;28;843;-80
2022/01/25 02:57:19;;;;;;;;;;;19.70;24.50;;;;;;685927;28;804;-81
2022/01/25 02:57:39;;;;;;;;;;;19.60;24.50;;;;;;685859;28;807;-80
2022/01/25 02:58:00;;;;;;;;;;;19.70;24.50;;;;;;686064;28;874;-80
2022/01/25 02:58:20;;;;;;;;;;;19.60;24.60;;;;;;685782;28;763;-78
2022/01/25 02:58:41;;;;;;;;;;;19.70;24.60;;;;;;685971;28;881;-79
2022/01/25 02:59:03;;;;;;;;;;;19.60;24.50;;;;;;685662;28;815;-81
2022/01/25 02:59:24;;;;;;;;;;;19.70;24.50;;;;;;685599;28;831;-81
2022/01/25 02:59:45;;;;;;;;;;;19.70;24.60;;;;;;685647;28;815;-80
2022/01/25 03:00:06;;;;;;;;;;;19.60;24.50;;;;;;685660;28;819;-81
2022/01/25 03:00:27;;;;;;;;;;;19.60;24.50;;;;;;685582;28;799;-82
2022/01/25 03:00:47;;;;;;;;;;;19.60;24.40;;;;;;685825;28;918;-82
2022/01/25 03:01:08;;;;;;;;;;;19.70;24.50;;;;;;685887;28;807;-80
2022/01/25 03:01:29;;;;;;;;;;;19.70;24.30;;;;;;685842;28;863;-82
2022/01/25 03:01:50;;;;;;;;;;;19.70;24.30;;;;;;686092;28;834;-81
2022/01/25 03:02:10;;;;;;;;;;;19.60;24.20;;;;;;685736;28;791;-81
2022/01/25 03:02:31;;;;;;;;;;;19.60;24.20;;;;;;685842;28;822;-81
2022/01/25 03:02:51;;;;;;;;;;;19.70;24.20;;;;;;685575;28;1944;-84
2022/01/25 03:03:12;;;;;;;;;;;19.60;23.90;;;;;;683190;28;1051;-80
2022/01/25 03:03:33;;;;;;;;;;;19.60;23.80;;;;;;685511;28;1375;-78
2022/01/25 03:03:53;;;;;;;;;;;19.60;23.80;;;;;;685756;28;808;-81
2022/01/25 03:04:14;;;;;;;;;;;19.60;23.80;;;;;;685468;28;875;-81
2022/01/25 03:04:35;;;;;;;;;;;19.60;23.50;;;;;;685640;28;883;-83
2022/01/25 03:04:56;;;;;;;;;;;19.60;23.70;;;;;;685584;28;879;-81
2022/01/25 03:05:16;;;;;;;;;;;19.60;23.90;;;;;;685422;28;784;-81
2022/01/25 03:05:37;;;;;;;;;;;19.60;24.10;;;;;;685758;28;958;-78
2022/01/25 03:05:58;;;;;;;;;;;19.60;24.10;;;;;;685703;28;855;-79
2022/01/25 03:06:21;;;;;;;;;;;19.60;24.20;;;;;;685586;28;882;-80
2022/01/25 03:06:44;;;;;;;;;;;19.60;24.30;;;;;;685662;28;991;-80
2022/01/25 03:07:05;;;;;;;;;;;19.60;24.30;;;;;;682708;29;1669;-79
2022/01/25 03:07:25;;;;;;;;;;;19.60;24.30;;;;;;683006;29;772;-81
2022/01/25 03:07:46;;;;;;;;;;;19.60;24.40;;;;;;682996;29;941;-80
2022/01/25 03:08:11;;;;;;;;;;;19.60;24.40;;;;;;683024;29;764;-78
2022/01/25 03:08:32;;;;;;;;;;;19.60;24.30;;;;;;683652;28;1413;-79
2022/01/25 03:08:53;;;;;;;;;;;19.60;24.40;;;;;;685553;28;803;-80
2022/01/25 03:09:14;;;;;;;;;;;19.60;24.40;;;;;;685855;28;1357;-80
2022/01/25 03:09:35;;;;;;;;;;;19.60;24.40;;;;;;685875;28;842;-79
2022/01/25 03:09:58;;;;;;;;;;;19.60;24.30;;;;;;685845;28;874;-81
2022/01/25 03:10:18;;;;;;;;;;;19.60;24.30;;;;;;686149;28;772;-81
2022/01/25 03:10:41;;;;;;;;;;;19.60;24.40;;;;;;685855;28;839;-83
2022/01/25 03:11:02;;;;;;;;;;;19.60;24.30;;;;;;685804;28;893;-79
2022/01/25 03:11:24;;;;;;;;;;;19.60;24.30;;;;;;685835;28;1445;-81
2022/01/25 03:11:47;;;;;;;;;;;19.60;24.40;;;;;;685874;28;811;-81
2022/01/25 03:12:10;;;;;;;;;;;19.60;24.40;;;;;;685918;28;1239;-81
2022/01/25 03:12:54;;;;;;;;;;;19.60;24.30;;;;;;685699;28;815;-81
2022/01/25 03:13:16;;;;;;;;;;;19.60;24.40;;;;;;685782;28;1392;-82
2022/01/25 03:13:48;;;;;;;;;;;19.60;24.30;;;;;;685884;28;859;-80
2022/01/25 03:14:11;;;;;;;;;;;19.60;24.40;;;;;;685826;28;839;-82
2022/01/25 03:14:34;;;;;;;;;;;19.50;24.30;;;;;;685731;28;877;-81
2022/01/25 03:16:19;;;;;;;;;;;19.60;24.30;;;;;;690822;28;1401;-80
2022/01/25 03:16:47;;;;;;;;;;;19.50;24.30;;;;;;690716;28;843;-81
2022/01/25 03:17:11;;;;;;;;;;;19.50;24.30;;;;;;688229;28;914;-80
2022/01/25 03:17:32;;;;;;;;;;;19.60;24.30;;;;;;688236;28;842;-81
2022/01/25 03:18:07;;;;;;;;;;;19.50;24.30;;;;;;688236;28;1201;-82
2022/01/25 03:18:55;;;;;;;;;;;19.50;24.30;;;;;;688493;28;672;-81
2022/01/25 03:20:05;;;;;;;;;;;19.50;24.20;;;;;;690984;28;625;-81
2022/01/25 03:21:39;;;;;;;;;;;19.50;24.30;;;;;;687969;28;1080;-82
2022/01/25 03:22:05;;;;;;;;;;;19.50;25.10;;;;;;688139;28;842;-82
2022/01/25 03:23:15;;;;;;;;;;;19.50;24.30;;;;;;685252;28;1362;-82
2022/01/25 03:23:36;;;;;;;;;;;19.50;24.20;;;;;;685420;28;843;-80
2022/01/25 03:23:57;;;;;;;;;;;19.50;24.20;;;;;;685700;28;874;-80
2022/01/25 03:24:17;;;;;;;;;;;19.50;24.20;;;;;;686645;28;984;-79
2022/01/25 03:24:38;;;;;;;;;;;19.50;24.20;;;;;;688111;28;866;-80
2022/01/25 03:24:59;;;;;;;;;;;19.50;24.20;;;;;;688161;28;977;-81